Time;durP1;ratioP1;P1;durP2;ratioP2;P2;SDS_P1;SDS_P2;PMS_P1;PMS_P2;Temp;Humidity;BMP_temperature;BMP_pressure;BME280_temperature;BME280_humidity;BME280_pressure;Samples;Min_cycle;Max_cycle;Signal;HPM_P1;HPM_P2
2022/05/05 00:01:28;;;;;;;6.47;5.80;;;;;;;12.03;nan;99708.47;4986644;28;20147;-77
2022/05/05 00:03:54;;;;;;;6.70;5.10;;;;;;;12.08;nan;99705.53;4986891;28;20476;-75
2022/05/05 00:06:19;;;;;;;6.67;5.40;;;;;;;12.12;nan;99705.22;4984013;28;20675;-76
2022/05/05 00:08:44;;;;;;;5.27;4.77;;;;;;;12.11;nan;99697.41;4986199;28;20915;-76
2022/05/05 00:16:38;;;;;;;6.20;5.63;;;;;;;11.96;nan;99694.03;4984240;28;20678;-76
2022/05/05 00:19:03;;;;;;;6.40;5.43;;;;;;;11.92;nan;99692.56;4984568;28;20230;-75
2022/05/05 00:21:29;;;;;;;6.30;5.70;;;;;;;11.92;nan;99687.28;4986409;28;20302;-76
2022/05/05 00:23:54;;;;;;;6.50;5.90;;;;;;;11.97;nan;99693.09;4987033;28;20216;-75
2022/05/05 00:26:19;;;;;;;5.90;5.40;;;;;;;11.98;nan;99684.22;4984480;28;20210;-76
2022/05/05 00:28:45;;;;;;;6.03;5.43;;;;;;;11.97;nan;99694.88;4986015;28;20612;-76
2022/05/05 00:31:10;;;;;;;6.20;5.50;;;;;;;11.97;nan;99690.47;4985561;28;20207;-75
2022/05/05 00:33:35;;;;;;;6.33;5.73;;;;;;;11.94;nan;99688.03;4986201;28;20564;-76
2022/05/05 00:36:01;;;;;;;9.13;6.73;;;;;;;11.94;nan;99696.78;4985457;28;20250;-76
2022/05/05 00:38:26;;;;;;;6.90;5.87;;;;;;;11.95;nan;99698.44;4985231;28;20839;-76
2022/05/05 00:40:52;;;;;;;6.33;5.60;;;;;;;11.90;nan;99702.34;4986224;28;20282;-75
2022/05/05 00:43:17;;;;;;;5.77;5.23;;;;;;;11.83;nan;99701.91;4986234;28;20710;-76
2022/05/05 00:45:42;;;;;;;6.13;5.50;;;;;;;11.73;nan;99701.66;4985727;28;20278;-76
2022/05/05 00:48:09;;;;;;;5.40;4.90;;;;;;;11.63;nan;99707.63;4984531;28;20239;-76
2022/05/05 00:50:36;;;;;;;5.55;4.88;;;;;;;11.61;nan;99710.38;4983135;28;20241;-76
2022/05/05 00:53:03;;;;;;;5.32;4.72;;;;;;;11.63;nan;99705.84;4985921;28;20338;-77
2022/05/05 00:55:32;;;;;;;5.90;5.07;;;;;;;11.60;nan;99703.41;4986219;28;20754;-76
2022/05/05 00:57:58;;;;;;;6.45;4.95;;;;;;;11.56;nan;99701.94;4986142;28;20270;-76
2022/05/05 01:00:23;;;;;;;6.75;5.63;;;;;;;11.58;nan;99699.19;4986180;28;20212;-76
2022/05/05 01:02:49;;;;;;;5.47;4.80;;;;;;;11.63;nan;99699.75;4985809;28;20203;-76
2022/05/05 01:05:15;;;;;;;5.83;4.30;;;;;;;11.66;nan;99697.75;4986181;28;20211;-76
2022/05/05 01:07:40;;;;;;;5.33;4.93;;;;;;;11.71;nan;99695.66;4985920;28;21022;-76
2022/05/05 01:10:06;;;;;;;5.57;5.03;;;;;;;11.76;nan;99700.59;4985863;28;20315;-77
2022/05/05 01:12:33;;;;;;;5.60;4.80;;;;;;;11.80;nan;99701.22;4985317;28;20459;-75
2022/05/05 01:15:00;;;;;;;5.57;5.07;;;;;;;11.85;nan;99699.13;4986020;28;20253;-77
2022/05/05 01:17:28;;;;;;;7.68;5.38;;;;;;;11.85;nan;99704.41;4983308;28;20227;-76
2022/05/05 01:19:53;;;;;;;5.35;4.82;;;;;;;11.85;nan;99699.13;4985469;28;20565;-76
2022/05/05 01:22:19;;;;;;;5.60;4.97;;;;;;;11.87;nan;99692.84;4986026;28;20273;-76
2022/05/05 01:30:13;;;;;;;5.68;4.82;;;;;;;11.89;nan;99695.41;4985996;28;20234;-76
2022/05/05 01:32:39;;;;;;;7.40;5.60;;;;;;;11.83;nan;99701.91;4985776;28;20968;-75
2022/05/05 01:35:05;;;;;;;7.00;5.87;;;;;;;11.81;nan;99695.03;4985202;28;20223;-76
2022/05/05 01:37:30;;;;;;;5.77;4.50;;;;;;;11.81;nan;99701.16;4984643;28;20227;-75
2022/05/05 01:39:56;;;;;;;5.87;5.10;;;;;;;11.77;nan;99697.03;4984522;28;20485;-76
2022/05/05 01:42:22;;;;;;;6.53;5.25;;;;;;;11.77;nan;99701.44;4970142;28;20239;-76
2022/05/05 01:44:48;;;;;;;7.30;4.70;;;;;;;11.79;nan;99704.81;4985345;28;20591;-76
2022/05/05 01:47:13;;;;;;;6.10;4.80;;;;;;;11.77;nan;99698.81;4950145;28;20264;-77
2022/05/05 01:49:39;;;;;;;5.50;4.93;;;;;;;11.80;nan;99703.88;4927311;29;20316;-76
2022/05/05 01:52:09;;;;;;;5.50;4.57;;;;;;;11.82;nan;99704.63;4928091;29;20209;-76
2022/05/05 01:54:34;;;;;;;8.25;5.95;;;;;;;11.80;nan;99711.75;4965614;28;20660;-77
2022/05/05 01:56:59;;;;;;;6.47;5.07;;;;;;;11.81;nan;99713.47;4967042;28;20228;-77
2022/05/05 01:59:25;;;;;;;5.33;4.73;;;;;;;11.81;nan;99713.47;4989555;28;20230;-75
2022/05/05 02:01:50;;;;;;;5.60;5.00;;;;;;;11.81;nan;99713.47;4988708;28;20209;-78
2022/05/05 02:04:15;;;;;;;5.73;4.53;;;;;;;11.81;nan;99716.94;4986878;28;20385;-76
2022/05/05 02:06:41;;;;;;;6.50;5.40;;;;;;;11.81;nan;99711.66;4987230;28;20277;-75
2022/05/05 02:09:06;;;;;;;5.60;5.10;;;;;;;11.83;nan;99712.41;4989298;28;20583;-78
2022/05/05 02:11:32;;;;;;;6.13;5.53;;;;;;;11.83;nan;99717.69;4988799;28;20211;-76
2022/05/05 02:13:57;;;;;;;6.70;6.00;;;;;;;11.84;nan;99721.16;4989168;28;20235;-76
2022/05/05 02:16:22;;;;;;;6.67;6.17;;;;;;;11.85;nan;99720.19;4986734;28;20204;-77
2022/05/05 02:18:48;;;;;;;7.70;5.67;;;;;;;11.84;nan;99710.63;4988875;28;20370;-75
2022/05/05 02:21:13;;;;;;;6.53;5.90;;;;;;;11.85;nan;99713.13;4988171;28;20689;-76
2022/05/05 02:23:39;;;;;;;5.80;5.00;;;;;;;11.83;nan;99709.78;4982667;28;20255;-77
2022/05/05 02:26:05;;;;;;;6.90;5.67;;;;;;;11.85;nan;99720.19;4972578;28;20251;-76
2022/05/05 02:28:31;;;;;;;8.30;6.90;;;;;;;11.86;nan;99716.66;4988624;23;20589;-71
2022/05/05 02:30:57;;;;;;;7.03;5.63;;;;;;;11.89;nan;99716.47;4969518;28;20631;-71
2022/05/05 02:33:23;;;;;;;7.00;6.30;;;;;;;11.92;nan;99710.97;4972109;28;20478;-70
2022/05/05 02:38:42;;;;;;;5.70;4.70;;;;;;;11.89;nan;99713.81;4977286;28;20680;-71
2022/05/05 02:38:42;;;;;;;5.53;5.03;;;;;;;11.84;nan;99714.09;4972667;28;20223;-71
2022/05/05 02:41:08;;;;;;;6.65;6.03;;;;;;;11.80;nan;99707.38;4986632;28;20235;-71
2022/05/05 02:43:33;;;;;;;5.80;5.30;;;;;;;11.76;nan;99710.28;4987161;28;20191;-71
2022/05/05 02:45:59;;;;;;;6.80;5.90;;;;;;;11.72;nan;99710.50;4988593;28;20238;-71
2022/05/05 02:48:24;;;;;;;6.90;6.30;;;;;;;11.69;nan;99702.81;4987408;28;20734;-70
2022/05/05 02:50:49;;;;;;;6.63;5.90;;;;;;;11.69;nan;99700.19;4988994;28;20733;-71
2022/05/05 02:55:59;;;;;;;5.95;5.35;;;;;;;11.66;nan;99699.53;4985230;28;20290;-70
2022/05/05 02:58:25;;;;;;;5.60;4.50;;;;;;;11.60;nan;99695.53;4974611;28;20208;-70
2022/05/05 03:00:50;;;;;;;6.78;5.30;;;;;;;11.61;nan;99689.34;4983190;28;20262;-70
2022/05/05 03:03:16;;;;;;;7.30;6.60;;;;;;;11.66;nan;99694.25;4977375;28;20219;-70
2022/05/05 03:05:41;;;;;;;7.67;6.37;;;;;;;11.68;nan;99692.38;4970528;28;20224;-70
2022/05/05 03:08:07;;;;;;;7.57;6.40;;;;;;;11.70;nan;99690.50;4978924;28;20651;-70
2022/05/05 03:10:32;;;;;;;6.67;6.00;;;;;;;11.76;nan;99694.50;4974677;28;20208;-70
2022/05/05 03:12:58;;;;;;;7.57;6.83;;;;;;;11.78;nan;99690.81;4975172;28;20562;-70
2022/05/05 03:15:23;;;;;;;7.10;6.40;;;;;;;11.79;nan;99697.75;4979168;28;20684;-71
2022/05/05 03:17:50;;;;;;;6.97;6.10;;;;;;;11.77;nan;99701.44;4985993;28;20227;-70
2022/05/05 03:20:15;;;;;;;6.10;5.50;;;;;;;11.76;nan;99699.78;4976390;28;20212;-70
2022/05/05 03:22:41;;;;;;;9.47;6.17;;;;;;;11.77;nan;99690.91;4979234;28;20212;-70
2022/05/05 03:25:07;;;;;;;7.07;5.50;;;;;;;11.78;nan;99696.09;4976489;28;20261;-70
2022/05/05 03:27:39;;;;;;;8.83;6.20;;;;;;;11.80;nan;99701.22;4973907;28;20736;-70
2022/05/05 03:30:06;;;;;;;9.30;6.97;;;;;;;11.80;nan;99699.47;4970732;28;20491;-70
2022/05/05 03:32:32;;;;;;;6.57;5.82;;;;;;;11.82;nan;99699.34;4968262;28;20212;-70
2022/05/05 03:35:00;;;;;;;6.80;5.72;;;;;;;11.81;nan;99700.31;4978398;28;20276;-70
2022/05/05 03:37:30;;;;;;;6.53;5.82;;;;;;;11.81;nan;99698.50;4977321;28;20303;-71
2022/05/05 03:39:55;;;;;;;6.80;6.15;;;;;;;11.78;nan;99700.53;4967512;28;20230;-70
2022/05/05 03:42:21;;;;;;;7.17;6.57;;;;;;;11.76;nan;99699.78;4969166;28;20212;-70
2022/05/05 03:44:47;;;;;;;7.07;5.63;;;;;;;11.74;nan;99703.31;4976058;28;20211;-70
2022/05/05 03:47:12;;;;;;;6.47;5.83;;;;;;;11.77;nan;99707.53;4983607;28;20733;-70
2022/05/05 03:49:37;;;;;;;6.13;5.20;;;;;;;11.82;nan;99709.88;4976002;28;20204;-70
2022/05/05 03:52:04;;;;;;;5.47;4.97;;;;;;;11.87;nan;99710.44;4976464;28;20210;-70
2022/05/05 03:54:29;;;;;;;6.72;6.00;;;;;;;11.89;nan;99711.19;4978659;28;20235;-71
2022/05/05 03:56:54;;;;;;;6.70;6.00;;;;;;;11.89;nan;99701.50;4971107;28;20632;-70
2022/05/05 03:59:22;;;;;;;6.30;5.70;;;;;;;11.90;nan;99713.72;4979479;28;20642;-70
2022/05/05 04:01:48;;;;;;;7.20;6.50;;;;;;;11.88;nan;99706.84;4982275;28;20504;-70
2022/05/05 04:04:13;;;;;;;9.23;5.70;;;;;;;11.88;nan;99718.25;4972132;28;20522;-71
2022/05/05 04:06:39;;;;;;;5.57;4.90;;;;;;;11.87;nan;99716.53;4984799;28;20466;-72
2022/05/05 04:09:05;;;;;;;6.40;5.80;;;;;;;11.86;nan;99712.25;4972692;28;20669;-71
2022/05/05 04:11:30;;;;;;;5.50;4.95;;;;;;;11.86;nan;99719.31;4984217;28;20232;-73
2022/05/05 04:13:56;;;;;;;6.63;5.50;;;;;;;11.86;nan;99716.66;4968345;28;20273;-72
2022/05/05 04:16:21;;;;;;;6.90;5.70;;;;;;;11.86;nan;99721.94;4967092;28;20216;-73
2022/05/05 04:18:47;;;;;;;6.07;5.57;;;;;;;11.87;nan;99728.88;4973423;28;20287;-72
2022/05/05 04:21:13;;;;;;;8.00;5.90;;;;;;;11.88;nan;99731.41;4970418;28;20196;-73
2022/05/05 04:23:40;;;;;;;7.32;6.00;;;;;;;11.89;nan;99727.00;4985027;28;20322;-73
2022/05/05 04:26:06;;;;;;;6.43;5.23;;;;;;;11.89;nan;99727.00;4978537;28;20212;-73
2022/05/05 04:28:31;;;;;;;5.77;5.17;;;;;;;11.88;nan;99733.19;4972978;28;20240;-73
2022/05/05 04:30:57;;;;;;;5.97;5.27;;;;;;;11.85;nan;99736.81;4947931;28;20881;-73
2022/05/05 04:33:23;;;;;;;7.18;6.47;;;;;;;11.89;nan;99737.50;4945971;28;21005;-74
2022/05/05 04:35:49;;;;;;;6.37;5.77;;;;;;;11.88;nan;99728.78;4956193;28;20220;-73
2022/05/05 04:38:14;;;;;;;7.23;6.20;;;;;;;11.88;nan;99738.44;4955581;28;20471;-73
2022/05/05 04:40:40;;;;;;;5.87;5.37;;;;;;;11.87;nan;99737.59;4959729;28;20563;-73
2022/05/05 04:43:06;;;;;;;9.07;6.73;;;;;;;11.87;nan;99736.75;4951300;28;20689;-73
2022/05/05 04:45:31;;;;;;;7.70;6.90;;;;;;;11.87;nan;99745.50;4948957;28;20205;-73
2022/05/05 04:47:57;;;;;;;8.50;6.60;;;;;;;11.87;nan;99744.66;4948564;28;20496;-73
2022/05/05 04:50:23;;;;;;;6.63;5.97;;;;;;;11.88;nan;99748.97;4947460;28;20312;-73
2022/05/05 04:52:49;;;;;;;8.20;5.77;;;;;;;11.87;nan;99748.13;4966080;28;20220;-73
2022/05/05 04:55:14;;;;;;;7.60;6.13;;;;;;;11.87;nan;99753.41;4951304;28;20495;-73
2022/05/05 04:57:40;;;;;;;7.73;6.93;;;;;;;11.86;nan;99750.88;4952455;28;20259;-74
2022/05/05 05:00:07;;;;;;;6.73;6.13;;;;;;;11.87;nan;99756.03;4966839;28;20415;-73
2022/05/05 05:02:32;;;;;;;7.82;7.13;;;;;;;11.93;nan;99754.78;4948926;28;20493;-73
2022/05/05 05:04:58;;;;;;;7.60;6.70;;;;;;;11.95;nan;99768.69;4955986;28;20208;-73
2022/05/05 05:07:23;;;;;;;7.33;6.73;;;;;;;11.95;nan;99768.69;4963002;28;20298;-73
2022/05/05 05:09:49;;;;;;;7.13;5.80;;;;;;;11.96;nan;99759.81;4960122;28;20208;-73
2022/05/05 05:12:15;;;;;;;6.97;6.27;;;;;;;11.98;nan;99762.38;4964636;28;20281;-73
2022/05/05 05:14:40;;;;;;;7.30;6.47;;;;;;;11.96;nan;99765.09;4958970;28;20208;-73
2022/05/05 05:17:06;;;;;;;7.33;6.03;;;;;;;11.99;nan;99767.53;4953792;28;20255;-73
2022/05/05 05:19:32;;;;;;;6.77;6.07;;;;;;;12.01;nan;99770.91;4960499;28;20243;-72
2022/05/05 05:21:58;;;;;;;7.57;6.37;;;;;;;12.03;nan;99769.00;4961984;28;20863;-73
2022/05/05 05:24:23;;;;;;;6.10;4.87;;;;;;;12.05;nan;99769.75;4953623;28;20456;-72
2022/05/05 05:26:48;;;;;;;6.80;6.10;;;;;;;12.05;nan;99771.56;4957760;28;20209;-73
2022/05/05 05:29:14;;;;;;;10.47;8.93;;;;;;;12.04;nan;99770.69;4968046;28;20214;-72
2022/05/05 05:31:39;;;;;;;15.17;11.97;;;;;;;12.07;nan;99767.00;4981083;28;20211;-72
2022/05/05 05:34:05;;;;;;;14.23;10.40;;;;;;;12.10;nan;99756.28;4976415;28;20241;-73
2022/05/05 05:36:30;;;;;;;11.17;8.40;;;;;;;12.12;nan;99771.03;4975594;28;20219;-73
2022/05/05 05:38:56;;;;;;;10.17;7.00;;;;;;;12.17;nan;99787.34;4973457;28;20315;-73
2022/05/05 05:41:21;;;;;;;12.80;8.80;;;;;;;12.22;nan;99783.56;4977948;28;20215;-73
2022/05/05 05:43:47;;;;;;;8.70;7.90;;;;;;;12.26;nan;99783.28;4986234;28;20294;-73
2022/05/05 05:46:12;;;;;;;8.60;6.43;;;;;;;12.31;nan;99785.56;4975228;28;20221;-73
2022/05/05 05:48:38;;;;;;;9.10;5.60;;;;;;;12.30;nan;99789.16;4965273;28;20238;-73
2022/05/05 05:51:05;;;;;;;7.80;7.00;;;;;;;12.31;nan;99785.56;4984703;28;20276;-73
2022/05/05 05:53:31;;;;;;;9.43;6.50;;;;;;;12.35;nan;99787.91;4979206;28;21144;-73
2022/05/05 05:55:56;;;;;;;8.60;7.80;;;;;;;12.40;nan;99787.59;4989173;28;20424;-73
2022/05/05 05:58:22;;;;;;;8.07;6.97;;;;;;;12.44;nan;99791.69;4984660;28;20283;-73
2022/05/05 06:00:47;;;;;;;7.40;6.37;;;;;;;12.42;nan;99788.31;4984023;28;20584;-73
2022/05/05 06:05:57;;;;;;;6.28;5.68;;;;;;;12.44;nan;99788.22;4978404;28;20204;-73
2022/05/05 06:08:22;;;;;;;10.77;7.50;;;;;;;12.45;nan;99796.03;4980631;28;20266;-73
2022/05/05 06:10:48;;;;;;;7.67;6.87;;;;;;;12.48;nan;99798.47;4973775;28;20273;-73
2022/05/05 06:13:13;;;;;;;7.60;6.83;;;;;;;12.51;nan;99802.69;4972928;28;20196;-73
2022/05/05 06:15:39;;;;;;;8.33;7.03;;;;;;;12.52;nan;99796.44;4979517;28;20227;-73
2022/05/05 06:18:04;;;;;;;7.77;6.50;;;;;;;12.48;nan;99800.25;4964389;28;20250;-73
2022/05/05 06:20:32;;;;;;;7.23;6.53;;;;;;;12.47;nan;99802.03;4973714;28;20214;-73
2022/05/05 06:22:58;;;;;;;9.68;6.45;;;;;;;12.48;nan;99806.38;4972587;28;20204;-74
2022/05/05 06:25:24;;;;;;;7.33;6.63;;;;;;;12.50;nan;99811.50;4970663;28;20513;-74
2022/05/05 06:27:50;;;;;;;7.43;6.53;;;;;;;12.46;nan;99807.41;4968190;28;20235;-73
2022/05/05 06:30:16;;;;;;;9.88;7.18;;;;;;;12.44;nan;99806.66;4963630;28;20208;-74
2022/05/05 06:32:43;;;;;;;9.00;6.40;;;;;;;12.44;nan;99807.50;4974895;28;20224;-73
2022/05/05 06:35:09;;;;;;;7.72;6.90;;;;;;;12.48;nan;99821.34;4974557;28;20521;-74
2022/05/05 06:37:35;;;;;;;8.35;6.45;;;;;;;12.53;nan;99822.69;4979877;28;20427;-74
2022/05/05 06:40:01;;;;;;;8.57;7.68;;;;;;;12.59;nan;99827.53;4974638;28;20241;-75
2022/05/05 06:42:27;;;;;;;8.60;7.70;;;;;;;12.65;nan;99828.91;4981602;28;20275;-73
2022/05/05 06:44:53;;;;;;;7.93;6.43;;;;;;;12.70;nan;99828.59;4965217;28;20655;-73
2022/05/05 06:47:19;;;;;;;8.70;7.30;;;;;;;12.73;nan;99831.03;4963617;28;20355;-74
2022/05/05 06:49:44;;;;;;;10.03;8.97;;;;;;;12.76;nan;99830.81;4974511;28;20214;-73
2022/05/05 06:52:09;;;;;;;8.03;7.23;;;;;;;12.79;nan;99831.44;4974718;28;20208;-73
2022/05/05 06:54:35;;;;;;;7.10;6.43;;;;;;;12.78;nan;99834.19;4968374;28;20212;-73
2022/05/05 06:57:00;;;;;;;9.13;7.33;;;;;;;12.77;nan;99833.34;4964133;28;20230;-73
2022/05/05 06:59:25;;;;;;;8.43;7.63;;;;;;;12.77;nan;99843.03;4962689;28;20208;-73
2022/05/05 07:01:54;;;;;;;10.60;7.90;;;;;;;12.78;nan;99842.94;4972858;28;20914;-73
2022/05/05 07:07:06;;;;;;;8.13;7.40;;;;;;;12.76;nan;99850.09;4962995;28;20709;-73
2022/05/05 07:12:16;;;;;;;8.40;7.47;;;;;;;12.74;nan;99856.41;4974896;28;20450;-74
2022/05/05 07:14:43;;;;;;;9.83;7.70;;;;;;;12.74;nan;99852.00;4969771;28;20286;-74
2022/05/05 07:17:09;;;;;;;9.55;7.75;;;;;;;12.76;nan;99857.16;4962933;28;20224;-74
2022/05/05 07:19:35;;;;;;;10.10;7.97;;;;;;;12.77;nan;99848.31;4971985;28;20705;-74
2022/05/05 07:22:01;;;;;;;9.20;8.15;;;;;;;12.78;nan;99857.91;4970533;28;20509;-74
2022/05/05 07:24:26;;;;;;;9.20;8.00;;;;;;;12.79;nan;99862.22;4967135;28;20204;-73
2022/05/05 07:26:52;;;;;;;8.87;7.30;;;;;;;12.77;nan;99858.84;4981122;28;20215;-74
2022/05/05 07:29:17;;;;;;;8.40;7.50;;;;;;;12.77;nan;99857.06;4968534;28;20302;-73
2022/05/05 07:31:43;;;;;;;9.03;7.97;;;;;;;12.78;nan;99861.38;4964840;28;20570;-74
2022/05/05 07:34:08;;;;;;;10.50;8.40;;;;;;;12.78;nan;99864.03;4967966;28;20371;-74
2022/05/05 07:36:34;;;;;;;9.47;7.77;;;;;;;12.76;nan;99870.34;4971878;28;20208;-74
2022/05/05 07:38:59;;;;;;;12.20;7.87;;;;;;;12.75;nan;99873.94;4974021;28;20291;-74
2022/05/05 07:41:24;;;;;;;9.70;8.67;;;;;;;12.75;nan;99873.94;4973079;28;20302;-74
2022/05/05 07:43:50;;;;;;;9.03;8.03;;;;;;;12.74;nan;99872.25;4966702;28;20684;-74
2022/05/05 07:46:18;;;;;;;11.17;9.17;;;;;;;12.73;nan;99873.19;4972936;28;20291;-73
2022/05/05 07:48:44;;;;;;;11.52;9.20;;;;;;;12.70;nan;99876.03;4974784;28;20227;-72
2022/05/05 07:51:10;;;;;;;10.35;9.00;;;;;;;12.63;nan;99880.88;4977898;28;20681;-73
2022/05/05 07:53:35;;;;;;;10.93;9.82;;;;;;;12.57;nan;99871.59;4969188;28;20204;-73
2022/05/05 07:56:01;;;;;;;12.73;9.47;;;;;;;12.52;nan;99876.31;4972054;28;20727;-73
2022/05/05 07:58:26;;;;;;;12.90;10.93;;;;;;;12.48;nan;99885.41;4967412;28;20705;-73
2022/05/05 08:00:52;;;;;;;13.77;12.27;;;;;;;12.45;nan;99876.84;4971877;28;20208;-74
2022/05/05 08:03:18;;;;;;;16.07;11.40;;;;;;;12.40;nan;99883.28;4963329;28;20207;-73
2022/05/05 08:05:44;;;;;;;19.98;15.95;;;;;;;12.38;nan;99884.31;4971263;28;20227;-73
2022/05/05 08:08:09;;;;;;;26.87;18.80;;;;;;;12.37;nan;99893.19;4975434;28;20278;-73
2022/05/05 08:10:35;;;;;;;20.40;14.60;;;;;;;12.38;nan;99886.97;4967237;28;20458;-73
2022/05/05 08:13:00;;;;;;;16.07;12.80;;;;;;;12.39;nan;99889.50;4969498;28;20211;-73
2022/05/05 08:15:26;;;;;;;19.98;15.85;;;;;;;12.43;nan;99898.03;4973401;28;20480;-73
2022/05/05 08:17:52;;;;;;;18.80;14.50;;;;;;;12.39;nan;99900.03;4969632;28;20639;-73
2022/05/05 08:20:17;;;;;;;17.27;13.73;;;;;;;12.35;nan;99895.91;4980158;28;20220;-73
2022/05/05 08:22:42;;;;;;;21.10;14.60;;;;;;;12.30;nan;99895.38;4971215;28;20228;-73
2022/05/05 08:30:38;;;;;;;17.02;12.77;;;;;;;12.11;nan;99906.25;4972461;28;20212;-77
2022/05/05 08:33:03;;;;;;;18.63;15.07;;;;;;;12.12;nan;99913.25;4989789;28;20479;-78
2022/05/05 08:35:29;;;;;;;16.13;12.90;;;;;;;12.11;nan;99913.31;4989889;28;20219;-78
2022/05/05 08:37:55;;;;;;;16.40;13.40;;;;;;;12.10;nan;99916.91;4989336;28;20310;-78
2022/05/05 08:40:26;;;;;;;16.15;13.60;;;;;;;12.07;nan;99915.31;4984507;28;20218;-79
2022/05/05 08:42:52;;;;;;;13.38;10.70;;;;;;;12.05;nan;99911.94;4987136;28;20612;-78
2022/05/05 08:45:17;;;;;;;16.03;13.00;;;;;;;12.06;nan;99918.03;4992977;28;20229;-78
2022/05/05 08:47:45;;;;;;;20.90;12.87;;;;;;;12.11;nan;99924.69;4985787;28;20490;-78
2022/05/05 08:50:11;;;;;;;18.90;12.88;;;;;;;12.15;nan;99930.59;4981808;28;20604;-78
2022/05/05 08:52:48;;;;;;;15.30;12.07;;;;;;;12.15;nan;99923.56;4988894;28;20690;-78
2022/05/05 08:55:15;;;;;;;16.85;13.90;;;;;;;12.13;nan;99935.16;4989251;28;20222;-77
2022/05/05 08:57:41;;;;;;;16.17;12.30;;;;;;;12.11;nan;99937.03;4995423;28;20306;-78
2022/05/05 09:00:08;;;;;;;18.35;12.57;;;;;;;12.10;nan;99933.56;4997412;28;20293;-77
2022/05/05 09:02:33;;;;;;;17.52;12.70;;;;;;;12.10;nan;99944.09;4983613;28;20206;-78
2022/05/05 09:04:59;;;;;;;17.13;11.63;;;;;;;12.05;nan;99935.63;4985739;28;20266;-77
2022/05/05 09:07:48;;;;;;;14.20;12.10;;;;;;;11.98;nan;99934.31;4992314;28;20242;-78
2022/05/05 09:10:16;;;;;;;16.25;11.68;;;;;;;11.98;nan;99934.31;4999918;28;20222;-77
2022/05/05 09:12:41;;;;;;;14.60;11.70;;;;;;;11.98;nan;99939.59;4999625;28;20852;-77
2022/05/05 09:15:10;;;;;;;19.63;11.10;;;;;;;11.92;nan;99932.09;4994097;28;20659;-76
2022/05/05 09:17:36;;;;;;;18.27;12.77;;;;;;;11.89;nan;99933.13;4987323;28;20751;-77
2022/05/05 09:20:04;;;;;;;17.57;13.10;;;;;;;11.91;nan;99943.59;4991057;28;20206;-77
2022/05/05 09:22:30;;;;;;;14.05;11.98;;;;;;;11.90;nan;99931.34;4996814;28;20561;-77
2022/05/05 09:24:57;;;;;;;13.90;10.90;;;;;;;11.92;nan;99929.47;4996425;28;20542;-77
2022/05/05 09:27:32;;;;;;;19.95;13.20;;;;;;;11.95;nan;99937.16;5003794;28;20223;-78
2022/05/05 09:30:10;;;;;;;18.55;12.52;;;;;;;12.00;nan;99929.81;4995197;28;20239;-77
2022/05/05 09:32:43;;;;;;;18.23;14.57;;;;;;;12.11;nan;99937.03;4994686;28;21481;-78
2022/05/05 09:35:15;;;;;;;18.38;13.82;;;;;;;12.14;nan;99936.81;4997305;28;20222;-77
2022/05/05 09:37:48;;;;;;;21.58;16.92;;;;;;;12.21;nan;99942.56;5003095;28;20841;-77
2022/05/05 09:40:21;;;;;;;18.75;13.98;;;;;;;12.34;nan;99935.50;4998998;28;20218;-77
2022/05/05 09:42:51;;;;;;;16.95;11.80;;;;;;;12.45;nan;99940.06;4984392;28;20668;-78
2022/05/05 09:45:18;;;;;;;20.20;13.85;;;;;;;12.51;nan;99935.25;4992362;28;20215;-77
2022/05/05 09:47:45;;;;;;;25.95;16.38;;;;;;;12.61;nan;99946.03;4994412;28;20750;-77
2022/05/05 09:50:12;;;;;;;22.08;15.18;;;;;;;12.68;nan;99942.03;5001238;28;20204;-78
2022/05/05 09:58:10;;;;;;;22.20;13.50;;;;;;;12.76;nan;99946.78;5003686;28;20707;-78
2022/05/05 10:00:45;;;;;;;17.10;13.33;;;;;;;12.78;nan;99948.38;4999290;28;20214;-79
2022/05/05 10:06:03;;;;;;;19.38;14.00;;;;;;;12.81;nan;99955.22;4999693;28;20207;-78
2022/05/05 10:08:43;;;;;;;15.40;13.18;;;;;;;12.83;nan;99951.53;4996878;28;20219;-78
2022/05/05 10:11:09;;;;;;;21.13;14.68;;;;;;;12.83;nan;99948.06;4987602;28;20223;-78
2022/05/05 10:13:37;;;;;;;18.57;13.90;;;;;;;12.83;nan;99954.19;4984051;28;20203;-78
2022/05/05 10:16:04;;;;;;;23.35;14.45;;;;;;;12.80;nan;99953.56;4991799;28;20840;-78
2022/05/05 10:18:32;;;;;;;16.55;13.38;;;;;;;12.76;nan;99960.81;5001964;28;20246;-78
2022/05/05 10:20:58;;;;;;;17.85;12.50;;;;;;;12.74;nan;99952.16;4994504;28;20214;-78
2022/05/05 10:23:40;;;;;;;20.50;14.53;;;;;;;12.74;nan;99964.50;4988656;28;20222;-79
2022/05/05 10:26:08;;;;;;;21.83;15.00;;;;;;;12.74;nan;99959.22;4983589;28;20477;-79
2022/05/05 10:28:37;;;;;;;18.20;13.48;;;;;;;12.74;nan;99954.78;4993789;28;20322;-79
2022/05/05 10:31:03;;;;;;;20.40;10.73;;;;;;;12.69;nan;99953.41;4999753;28;20236;-79
2022/05/05 10:34:00;;;;;;;19.87;16.53;;;;;;;12.72;nan;99959.34;4991989;28;20980;-80
2022/05/05 10:36:27;;;;;;;20.75;13.77;;;;;;;12.67;nan;99955.31;4996337;28;20461;-79
2022/05/05 10:38:53;;;;;;;23.10;15.10;;;;;;;12.67;nan;99958.81;5001006;28;20268;-79
2022/05/05 10:41:37;;;;;;;22.07;17.10;;;;;;;12.78;nan;99952.81;4986803;28;20523;-80
2022/05/05 10:44:21;;;;;;;24.00;16.33;;;;;;;12.85;nan;99956.69;4990676;28;20225;-79
2022/05/05 10:46:59;;;;;;;21.15;15.02;;;;;;;12.86;nan;99957.56;4989976;28;20238;-79
2022/05/05 10:49:30;;;;;;;19.60;13.23;;;;;;;12.89;nan;99950.28;5001408;28;20285;-79
2022/05/05 10:52:08;;;;;;;18.00;13.75;;;;;;;12.95;nan;99957.78;4998690;28;20488;-80
2022/05/05 10:54:37;;;;;;;20.65;14.52;;;;;;;13.01;nan;99951.22;4982891;28;20212;-79
2022/05/05 10:57:27;;;;;;;20.00;14.90;;;;;;;13.06;nan;99949.97;4995732;28;20310;-79
2022/05/05 11:00:12;;;;;;;20.70;13.65;;;;;;;13.11;nan;99948.81;4990395;28;20211;-79
2022/05/05 11:02:58;;;;;;;20.77;14.73;;;;;;;13.11;nan;99944.38;4983148;28;20621;-79
2022/05/05 11:05:27;;;;;;;19.65;15.07;;;;;;;13.21;nan;99947.25;4991513;28;20202;-79
2022/05/05 11:07:53;;;;;;;16.83;15.00;;;;;;;13.28;nan;99949.38;4995630;28;20304;-79
2022/05/05 11:10:31;;;;;;;19.92;15.07;;;;;;;13.34;nan;99948.13;5004275;28;20239;-79
2022/05/05 11:12:56;;;;;;;20.15;16.00;;;;;;;13.36;nan;99938.28;5000334;28;20213;-79
2022/05/05 11:23:57;;;;;;;20.17;14.75;;;;;;;13.61;nan;99944.47;4983490;28;20196;-79
2022/05/05 11:26:23;;;;;;;23.60;15.52;;;;;;;13.66;nan;99947.63;4986439;28;20227;-79
2022/05/05 11:28:50;;;;;;;19.83;14.77;;;;;;;13.66;nan;99943.22;4995594;28;20757;-79
2022/05/05 11:31:16;;;;;;;19.50;14.90;;;;;;;13.67;nan;99946.69;4993738;28;20199;-79
2022/05/05 11:33:41;;;;;;;23.33;15.13;;;;;;;13.70;nan;99938.56;4987765;28;20207;-79
2022/05/05 11:36:07;;;;;;;19.30;16.20;;;;;;;13.75;nan;99941.72;4992160;28;20533;-79
2022/05/05 11:38:32;;;;;;;23.57;14.80;;;;;;;13.79;nan;99934.41;4991879;28;20218;-79
2022/05/05 11:41:05;;;;;;;24.10;17.40;;;;;;;13.78;nan;99935.38;4991690;28;20210;-79
2022/05/05 11:46:16;;;;;;;21.40;15.40;;;;;;;13.75;nan;99941.72;4987930;28;20203;-78
2022/05/05 11:48:43;;;;;;;22.23;16.00;;;;;;;13.76;nan;99939.91;4983891;28;20246;-79
2022/05/05 11:51:10;;;;;;;23.80;16.80;;;;;;;13.73;nan;99939.16;4997930;28;20619;-79
2022/05/05 11:53:36;;;;;;;20.20;15.73;;;;;;;13.74;nan;99932.09;4986899;28;20664;-78
2022/05/05 11:56:01;;;;;;;18.53;13.90;;;;;;;13.78;nan;99933.56;4994270;28;20299;-78
2022/05/05 12:04:02;;;;;;;21.50;15.85;;;;;;;13.67;nan;99931.69;4993212;28;20202;-78
2022/05/05 12:06:29;;;;;;;24.50;16.42;;;;;;;13.67;nan;99930.84;4996587;28;20217;-78
2022/05/05 12:08:56;;;;;;;24.70;15.15;;;;;;;13.64;nan;99936.34;4994350;28;20959;-78
2022/05/05 12:11:22;;;;;;;20.00;16.40;;;;;;;13.66;nan;99927.38;4989567;28;20251;-78
2022/05/05 12:13:49;;;;;;;21.77;16.87;;;;;;;13.64;nan;99925.78;4983001;28;20307;-78
2022/05/05 12:16:17;;;;;;;19.50;15.93;;;;;;;13.63;nan;99929.38;4994470;28;20215;-78
2022/05/05 12:18:54;;;;;;;20.02;14.98;;;;;;;13.60;nan;99930.44;4989092;28;20627;-78
2022/05/05 12:21:21;;;;;;;17.75;14.95;;;;;;;13.60;nan;99924.31;4996409;28;20748;-79
2022/05/05 12:24:01;;;;;;;19.02;13.55;;;;;;;13.63;nan;99924.94;4989283;28;20239;-79
2022/05/05 12:26:35;;;;;;;17.60;14.40;;;;;;;13.66;nan;99926.50;4985827;28;20730;-79
2022/05/05 12:29:02;;;;;;;21.85;16.00;;;;;;;13.71;nan;99927.03;4985470;28;20294;-78
2022/05/05 12:31:30;;;;;;;17.40;13.25;;;;;;;13.73;nan;99928.59;4985351;28;20121;-78
2022/05/05 12:33:57;;;;;;;16.48;13.25;;;;;;;13.78;nan;99927.44;4985655;28;20319;-78
2022/05/05 12:36:29;;;;;;;20.50;15.63;;;;;;;13.82;nan;99935.00;4996250;28;20269;-78